createdAt,value
2022-09-16T00:02:10.320Z,6.57
2022-09-16T00:04:38.361Z,5.37
2022-09-16T00:07:05.767Z,6.20
2022-09-16T00:09:33.408Z,6.05
2022-09-16T00:12:01.037Z,5.62
2022-09-16T00:14:28.377Z,5.43
2022-09-16T00:16:55.752Z,5.53
2022-09-16T00:19:23.356Z,4.20
2022-09-16T00:21:50.860Z,3.78
2022-09-16T00:24:18.226Z,4.32
2022-09-16T00:26:45.839Z,4.55
2022-09-16T00:29:13.290Z,4.68
2022-09-16T00:31:40.722Z,4.15
2022-09-16T00:34:08.337Z,4.22
2022-09-16T00:36:35.710Z,3.90
2022-09-16T00:39:03.083Z,3.97
2022-09-16T00:41:33.222Z,3.72
2022-09-16T00:44:02.438Z,3.70
2022-09-16T00:46:40.594Z,3.72
2022-09-16T00:49:28.481Z,3.97
2022-09-16T00:52:00.198Z,4.22
2022-09-16T00:54:27.834Z,4.47
2022-09-16T00:56:55.917Z,4.55
2022-09-16T00:59:28.327Z,4.50
2022-09-16T01:01:56.599Z,4.37
2022-09-16T01:04:29.202Z,4.78
2022-09-16T01:06:56.822Z,4.80
2022-09-16T01:09:24.424Z,5.00
2022-09-16T01:11:52.051Z,5.57
2022-09-16T01:14:38.327Z,5.68
2022-09-16T01:17:28.058Z,6.22
2022-09-16T01:20:01.694Z,5.53
2022-09-16T01:22:56.675Z,6.50
2022-09-16T01:25:58.545Z,5.43
2022-09-16T01:29:01.056Z,5.10
2022-09-16T01:31:42.753Z,5.30
2022-09-16T01:34:12.931Z,5.10
2022-09-16T01:37:04.287Z,5.00
2022-09-16T01:39:37.582Z,4.87
2022-09-16T01:42:20.956Z,5.80
2022-09-16T01:44:57.236Z,5.55
2022-09-16T01:47:54.868Z,5.70
2022-09-16T01:50:31.895Z,5.22
2022-09-16T01:53:11.768Z,5.85
2022-09-16T01:55:57.155Z,5.40
2022-09-16T01:58:28.612Z,6.30
2022-09-16T02:00:59.222Z,6.07
2022-09-16T02:03:31.087Z,5.35
2022-09-16T02:06:19.554Z,5.43
2022-09-16T02:08:50.616Z,5.85
2022-09-16T02:11:18.277Z,5.70
2022-09-16T02:13:54.548Z,5.12
2022-09-16T02:16:29.357Z,6.12
2022-09-16T02:19:02.217Z,5.47
2022-09-16T02:21:31.185Z,6.20
2022-09-16T02:24:00.648Z,5.50
2022-09-16T02:26:30.536Z,6.07
2022-09-16T02:28:58.261Z,5.87
2022-09-16T02:31:28.343Z,6.45
2022-09-16T02:34:12.385Z,5.47
2022-09-16T02:36:40.724Z,6.12
2022-09-16T02:39:09.620Z,6.80
2022-09-16T02:41:37.808Z,5.97
2022-09-16T02:44:05.631Z,5.62
2022-09-16T02:46:55.564Z,6.95
2022-09-16T02:49:44.429Z,5.62
2022-09-16T02:52:37.752Z,6.93
2022-09-16T02:55:12.406Z,6.80
2022-09-16T02:57:39.734Z,6.45
2022-09-16T03:00:07.876Z,7.12
2022-09-16T03:02:35.289Z,7.12
2022-09-16T03:05:03.503Z,8.07
2022-09-16T03:07:31.103Z,7.53
2022-09-16T03:09:58.453Z,6.82
2022-09-16T03:12:39.509Z,7.37
2022-09-16T03:15:23.101Z,7.97
2022-09-16T03:17:56.402Z,7.47
2022-09-16T03:20:33.971Z,8.50
2022-09-16T03:23:29.574Z,8.30
2022-09-16T03:28:54.767Z,8.05
2022-09-16T03:31:28.973Z,7.43
2022-09-16T03:34:17.828Z,8.52
2022-09-16T03:36:47.968Z,8.60
2022-09-16T03:39:15.585Z,7.65
2022-09-16T03:41:42.909Z,8.65
2022-09-16T03:44:10.582Z,8.05
2022-09-16T03:46:37.983Z,7.80
2022-09-16T03:49:05.326Z,8.45
2022-09-16T03:51:32.960Z,8.30
2022-09-16T03:54:00.282Z,8.13
2022-09-16T03:56:27.633Z,8.35
2022-09-16T03:58:55.391Z,9.32
2022-09-16T04:01:22.816Z,7.97
2022-09-16T04:03:52.326Z,8.88
2022-09-16T04:06:19.961Z,7.70
2022-09-16T04:08:47.394Z,8.90
2022-09-16T04:11:15.099Z,7.97
2022-09-16T04:13:42.449Z,8.27
2022-09-16T04:16:09.857Z,8.23
2022-09-16T04:18:37.753Z,8.30
2022-09-16T04:21:05.271Z,8.80
2022-09-16T04:23:32.614Z,9.10
2022-09-16T04:26:01.388Z,7.18
2022-09-16T04:28:30.360Z,8.48
2022-09-16T04:31:05.583Z,6.93
2022-09-16T04:33:34.478Z,8.70
2022-09-16T04:36:09.105Z,8.40
2022-09-16T04:38:36.903Z,8.38
2022-09-16T04:41:06.591Z,8.27
2022-09-16T04:43:33.958Z,8.40
2022-09-16T04:46:01.722Z,8.70
2022-09-16T04:48:29.338Z,8.88
2022-09-16T04:51:10.856Z,9.98
2022-09-16T04:53:39.817Z,8.73
2022-09-16T04:56:08.657Z,9.15
2022-09-16T04:58:36.346Z,9.70
2022-09-16T05:01:06.021Z,8.77
2022-09-16T05:03:33.762Z,8.60
2022-09-16T05:06:08.317Z,9.32
2022-09-16T05:08:36.013Z,8.85
2022-09-16T05:11:07.780Z,9.00
2022-09-16T05:13:35.155Z,8.60
2022-09-16T05:16:07.345Z,9.30
2022-09-16T05:18:39.412Z,10.02
2022-09-16T05:21:09.162Z,9.70
2022-09-16T05:23:37.846Z,8.77
2022-09-16T05:26:06.733Z,10.32
2022-09-16T05:28:35.129Z,8.90
2022-09-16T05:31:13.023Z,10.93
2022-09-16T05:33:41.454Z,10.73
2022-09-16T05:36:16.743Z,8.95
2022-09-16T05:38:59.178Z,8.35
2022-09-16T05:41:31.837Z,9.40
2022-09-16T05:44:00.555Z,9.95
2022-09-16T05:46:28.222Z,10.73
2022-09-16T05:48:56.440Z,9.98
2022-09-16T05:51:24.505Z,9.48
2022-09-16T05:53:52.386Z,9.65
2022-09-16T05:56:21.946Z,9.60
2022-09-16T05:58:51.558Z,8.93
2022-09-16T06:01:20.450Z,8.90
2022-09-16T06:03:48.852Z,9.40
2022-09-16T06:06:25.836Z,8.88
2022-09-16T06:08:55.750Z,9.60
2022-09-16T06:11:23.345Z,8.93
2022-09-16T06:13:55.721Z,8.88
2022-09-16T06:16:25.847Z,9.07
2022-09-16T06:18:54.085Z,8.57
2022-09-16T06:21:21.600Z,10.45
2022-09-16T06:23:49.243Z,8.80
2022-09-16T06:26:18.286Z,8.93
2022-09-16T06:28:45.933Z,8.80
2022-09-16T06:31:15.066Z,9.35
2022-09-16T06:33:42.475Z,8.05
2022-09-16T06:36:16.485Z,9.98
2022-09-16T06:38:44.871Z,8.50
2022-09-16T06:41:12.662Z,8.73
2022-09-16T06:43:40.102Z,9.15
2022-09-16T06:46:18.645Z,8.60
2022-09-16T06:48:47.219Z,8.20
2022-09-16T06:51:16.712Z,7.65
2022-09-16T06:53:44.405Z,8.63
2022-09-16T06:56:13.390Z,8.18
2022-09-16T06:58:42.341Z,8.15
2022-09-16T07:01:17.211Z,8.75
2022-09-16T07:03:47.743Z,8.50
2022-09-16T07:06:15.541Z,8.02
2022-09-16T07:08:43.542Z,7.87
2022-09-16T07:11:21.645Z,8.00
2022-09-16T07:13:49.551Z,7.28
2022-09-16T07:16:20.011Z,7.80
2022-09-16T07:18:48.361Z,7.45
2022-09-16T07:21:17.265Z,7.50
2022-09-16T07:23:45.409Z,7.80
2022-09-16T07:26:17.761Z,7.10
2022-09-16T07:28:47.048Z,8.15
2022-09-16T07:31:25.404Z,6.93
2022-09-16T07:33:54.447Z,7.32
2022-09-16T07:36:23.703Z,6.05
2022-09-16T07:38:51.450Z,7.55
2022-09-16T07:41:24.134Z,7.53
2022-09-16T07:43:51.540Z,6.68
2022-09-16T07:46:19.949Z,6.18
2022-09-16T07:48:48.055Z,6.15
2022-09-16T07:51:19.999Z,7.05
2022-09-16T07:53:47.724Z,7.22
2022-09-16T07:56:16.901Z,6.47
2022-09-16T07:58:45.415Z,7.10
2022-09-16T08:01:15.158Z,6.55
2022-09-16T08:03:43.459Z,5.97
2022-09-16T08:06:15.409Z,6.57
2022-09-16T08:08:43.356Z,6.45
2022-09-16T08:11:10.851Z,7.15
2022-09-16T08:13:38.494Z,6.20
2022-09-16T08:16:14.648Z,7.62
2022-09-16T08:18:43.669Z,6.45
2022-09-16T08:21:19.670Z,6.62
2022-09-16T08:23:47.088Z,6.43
2022-09-16T08:26:15.090Z,6.78
2022-09-16T08:28:57.532Z,7.12
2022-09-16T08:31:31.200Z,6.45
2022-09-16T08:33:58.653Z,6.30
2022-09-16T08:36:26.286Z,6.72
2022-09-16T08:38:56.878Z,6.55
2022-09-16T08:41:39.566Z,6.55
2022-09-16T08:44:13.114Z,7.18
2022-09-16T08:46:57.830Z,5.75
2022-09-16T08:49:28.503Z,6.75
2022-09-16T08:51:55.964Z,5.75
2022-09-16T08:54:37.886Z,6.60
2022-09-16T08:57:05.998Z,5.43
2022-09-16T08:59:37.371Z,5.18
2022-09-16T09:02:24.214Z,5.78
2022-09-16T09:04:51.860Z,5.65
2022-09-16T09:07:47.943Z,5.97
2022-09-16T09:13:14.220Z,6.70
2022-09-16T09:15:44.842Z,6.37
2022-09-16T09:18:31.882Z,5.40
2022-09-16T09:21:11.015Z,6.22
2022-09-16T09:24:09.091Z,5.85
2022-09-16T09:27:04.877Z,6.43
2022-09-16T09:29:54.322Z,5.55
2022-09-16T09:32:49.077Z,6.18
2022-09-16T09:37:55.195Z,5.10
2022-09-16T09:40:35.963Z,5.57
2022-09-16T09:43:23.630Z,6.32
2022-09-16T09:46:26.868Z,6.28
2022-09-16T09:49:14.880Z,6.15
2022-09-16T09:51:45.708Z,5.82
2022-09-16T09:54:31.751Z,6.68
2022-09-16T09:57:07.995Z,6.00
2022-09-16T10:00:13.008Z,6.37
2022-09-16T10:02:44.976Z,6.07
2022-09-16T10:05:22.948Z,6.45
2022-09-16T10:07:52.179Z,6.10
2022-09-16T10:10:21.834Z,6.37
2022-09-16T10:12:52.417Z,6.20
2022-09-16T10:15:30.361Z,7.55
2022-09-16T10:17:59.396Z,6.55
2022-09-16T10:20:36.989Z,6.28
2022-09-16T10:23:20.577Z,6.30
2022-09-16T10:25:50.676Z,6.75
2022-09-16T10:28:23.979Z,6.53
2022-09-16T10:30:52.634Z,6.62
2022-09-16T10:33:34.983Z,7.15
2022-09-16T10:36:02.901Z,6.80
2022-09-16T10:38:41.787Z,6.07
2022-09-16T10:41:16.097Z,6.93
2022-09-16T10:44:00.840Z,6.65
2022-09-16T10:46:28.686Z,7.10
2022-09-16T10:49:09.895Z,8.05
2022-09-16T10:51:37.310Z,6.85
2022-09-16T10:54:06.139Z,7.18
2022-09-16T10:56:47.360Z,6.90
2022-09-16T10:59:15.540Z,6.68
2022-09-16T11:01:46.223Z,6.93
2022-09-16T11:04:26.489Z,7.00
2022-09-16T11:06:57.382Z,7.80
2022-09-16T11:09:53.498Z,6.95
2022-09-16T11:12:46.028Z,8.15
2022-09-16T11:15:25.279Z,7.87
2022-09-16T11:18:04.887Z,7.50
2022-09-16T11:20:50.951Z,7.87
2022-09-16T11:23:35.429Z,7.80
2022-09-16T11:26:28.253Z,8.18
2022-09-16T11:29:03.451Z,7.40
2022-09-16T11:31:59.847Z,7.95
2022-09-16T11:34:46.743Z,7.62
2022-09-16T11:37:26.190Z,7.80
2022-09-16T11:40:16.319Z,7.50
2022-09-16T11:43:13.378Z,8.23
2022-09-16T11:45:52.510Z,9.00
2022-09-16T11:48:44.311Z,8.80
2022-09-16T11:51:40.038Z,8.73
2022-09-16T11:54:18.442Z,8.18
2022-09-16T11:56:57.344Z,7.87
2022-09-16T11:59:30.306Z,7.62
2022-09-16T12:02:00.489Z,7.68
2022-09-16T12:04:53.934Z,7.28
2022-09-16T12:07:23.745Z,7.80
2022-09-16T12:09:55.859Z,8.25
2022-09-16T12:12:25.397Z,8.50
2022-09-16T12:15:12.860Z,8.50
2022-09-16T12:17:40.576Z,7.97
2022-09-16T12:20:15.547Z,8.88
2022-09-16T12:22:59.166Z,8.45
2022-09-16T12:25:29.755Z,8.82
2022-09-16T12:28:32.082Z,8.45
2022-09-16T12:31:23.536Z,9.02
2022-09-16T12:33:56.180Z,8.80
2022-09-16T12:36:27.111Z,8.93
2022-09-16T12:38:54.475Z,9.43
2022-09-16T12:41:40.082Z,8.88
2022-09-16T12:47:26.099Z,9.88
2022-09-16T12:50:05.782Z,8.63
2022-09-16T12:52:40.880Z,9.32
2022-09-16T12:55:20.583Z,8.30
2022-09-16T12:57:47.795Z,9.50
2022-09-16T13:00:37.137Z,8.55
2022-09-16T13:03:21.792Z,9.13
2022-09-16T13:05:54.153Z,9.40
2022-09-16T13:08:25.492Z,8.13
2022-09-16T13:11:29.241Z,8.43
2022-09-16T13:13:50.456Z,8.90
2022-09-16T13:16:35.791Z,8.38
2022-09-16T13:19:24.868Z,8.90
2022-09-16T13:21:57.411Z,8.10
2022-09-16T13:24:51.048Z,9.60
2022-09-16T13:27:27.488Z,9.15
2022-09-16T13:32:56.377Z,9.85
2022-09-16T13:35:44.065Z,9.13
2022-09-16T13:38:24.065Z,8.40
2022-09-16T13:41:02.303Z,8.43
2022-09-16T13:43:53.406Z,8.13
2022-09-16T13:46:37.097Z,8.50
2022-09-16T13:49:11.010Z,8.98
2022-09-16T13:51:45.076Z,8.60
2022-09-16T13:54:21.917Z,8.18
2022-09-16T13:57:02.338Z,8.13
2022-09-16T13:59:50.039Z,8.10
2022-09-16T14:02:27.517Z,8.18
2022-09-16T14:05:11.401Z,7.55
2022-09-16T14:08:19.214Z,7.87
2022-09-16T14:10:50.458Z,8.38
2022-09-16T14:13:19.732Z,8.50
2022-09-16T14:15:50.489Z,7.82
2022-09-16T14:18:20.311Z,7.55
2022-09-16T14:21:01.342Z,8.40
2022-09-16T14:23:29.618Z,8.10
2022-09-16T14:25:57.593Z,8.88
2022-09-16T14:28:26.578Z,7.87
2022-09-16T14:30:57.300Z,7.97
2022-09-16T14:33:56.950Z,8.25
2022-09-16T14:36:29.218Z,7.80
2022-09-16T14:38:57.986Z,6.78
2022-09-16T14:41:30.363Z,7.05
2022-09-16T14:44:17.160Z,7.05
2022-09-16T14:47:21.939Z,6.20
2022-09-16T14:50:05.376Z,6.72
2022-09-16T14:52:33.841Z,6.50
2022-09-16T14:55:01.744Z,7.22
2022-09-16T14:57:30.197Z,6.93
2022-09-16T14:59:58.186Z,6.12
2022-09-16T15:02:34.302Z,6.37
2022-09-16T15:05:44.886Z,6.22
2022-09-16T15:08:26.244Z,7.05
2022-09-16T15:10:55.271Z,8.02
2022-09-16T15:13:28.493Z,6.68
2022-09-16T15:16:03.895Z,7.97
2022-09-16T15:18:33.284Z,6.95
2022-09-16T15:21:18.792Z,7.18
2022-09-16T15:23:47.961Z,6.97
2022-09-16T15:26:19.866Z,7.05
2022-09-16T15:28:54.331Z,5.87
2022-09-16T15:31:36.980Z,6.50
2022-09-16T15:34:18.659Z,6.70
2022-09-16T15:37:27.470Z,6.43
2022-09-16T15:39:55.488Z,5.32
2022-09-16T15:42:26.294Z,5.80
2022-09-16T15:44:56.964Z,6.72
2022-09-16T15:47:25.190Z,6.35
2022-09-16T15:50:16.961Z,6.07
2022-09-16T15:53:03.951Z,6.18
2022-09-16T15:55:43.395Z,5.82
2022-09-16T15:58:18.173Z,6.10
2022-09-16T16:01:04.692Z,5.97
2022-09-16T16:03:44.202Z,5.82
2022-09-16T16:06:12.224Z,5.70
2022-09-16T16:08:48.277Z,6.72
2022-09-16T16:11:19.993Z,5.65
2022-09-16T16:13:47.823Z,5.28
2022-09-16T16:16:15.804Z,6.03
2022-09-16T16:18:43.974Z,5.07
2022-09-16T16:21:16.036Z,5.65
2022-09-16T16:23:43.710Z,5.30
2022-09-16T16:26:11.242Z,5.45
2022-09-16T16:28:38.894Z,5.22
2022-09-16T16:31:17.766Z,5.15
2022-09-16T16:33:46.544Z,4.80
2022-09-16T16:36:14.849Z,5.07
2022-09-16T16:38:42.448Z,5.05
2022-09-16T16:41:12.163Z,4.68
2022-09-16T16:43:40.082Z,5.82
2022-09-16T16:46:07.533Z,5.18
2022-09-16T16:48:35.741Z,4.28
2022-09-16T16:51:05.409Z,4.47
2022-09-16T16:53:33.148Z,4.60
2022-09-16T16:56:14.550Z,4.85
2022-09-16T16:58:46.019Z,4.82
2022-09-16T17:01:17.430Z,4.37
2022-09-16T17:03:46.296Z,4.43
2022-09-16T17:06:13.946Z,4.05
2022-09-16T17:08:41.397Z,4.45
2022-09-16T17:11:13.893Z,3.70
2022-09-16T17:13:43.095Z,3.95
2022-09-16T17:16:12.216Z,4.15
2022-09-16T17:18:40.287Z,3.92
2022-09-16T17:21:08.938Z,4.45
2022-09-16T17:23:36.597Z,3.92
2022-09-16T17:26:04.383Z,3.87
2022-09-16T17:28:31.998Z,3.95
2022-09-16T17:30:59.402Z,4.12
2022-09-16T17:33:27.163Z,4.05
2022-09-16T17:36:01.958Z,3.72
2022-09-16T17:38:29.324Z,4.72
2022-09-16T17:41:06.694Z,4.03
2022-09-16T17:43:35.396Z,3.67
2022-09-16T17:46:11.583Z,3.50
2022-09-16T17:48:39.001Z,3.35
2022-09-16T17:51:06.933Z,3.62
2022-09-16T17:53:34.886Z,4.12
2022-09-16T17:56:31.983Z,3.60
2022-09-16T17:59:01.925Z,3.90
2022-09-16T18:01:30.753Z,4.05
2022-09-16T18:03:58.792Z,3.92
2022-09-16T18:06:30.882Z,3.67
2022-09-16T18:09:02.545Z,4.00
2022-09-16T18:11:31.213Z,3.75
2022-09-16T18:14:00.327Z,3.78
2022-09-16T18:16:29.324Z,3.75
2022-09-16T18:18:59.110Z,3.80
2022-09-16T18:21:27.161Z,3.35
2022-09-16T18:24:00.188Z,3.40
2022-09-16T18:26:29.260Z,3.12
2022-09-16T18:29:14.836Z,3.17
2022-09-16T18:31:45.474Z,3.47
2022-09-16T18:34:14.917Z,3.50
2022-09-16T18:36:42.620Z,3.40
2022-09-16T18:39:14.847Z,3.40
2022-09-16T18:41:44.901Z,3.35
2022-09-16T18:44:19.615Z,3.67
2022-09-16T18:46:48.346Z,3.45
2022-09-16T18:49:20.470Z,3.60
2022-09-16T18:51:51.935Z,3.75
2022-09-16T18:54:25.946Z,3.53
2022-09-16T18:56:59.092Z,4.50
2022-09-16T18:59:31.166Z,7.00
2022-09-16T19:02:02.655Z,4.60
2022-09-16T19:04:31.649Z,4.35
2022-09-16T19:07:07.319Z,4.82
2022-09-16T19:09:37.458Z,4.50
2022-09-16T19:12:09.582Z,4.20
2022-09-16T19:14:37.843Z,4.90
2022-09-16T19:17:05.277Z,3.87
2022-09-16T19:19:33.189Z,4.60
2022-09-16T19:22:05.358Z,3.67
2022-09-16T19:24:33.059Z,4.50
2022-09-16T19:27:00.895Z,4.07
2022-09-16T19:29:28.469Z,3.70
2022-09-16T19:31:56.296Z,3.87
2022-09-16T19:34:24.305Z,3.87
2022-09-16T19:36:51.743Z,4.37
2022-09-16T19:39:21.337Z,4.45
2022-09-16T19:41:51.572Z,4.60
2022-09-16T19:44:19.203Z,3.85
2022-09-16T19:46:49.156Z,4.95
2022-09-16T19:49:19.846Z,4.45
2022-09-16T19:51:48.292Z,4.47
2022-09-16T19:54:16.189Z,3.55
2022-09-16T19:56:48.147Z,4.28
2022-09-16T19:59:17.884Z,4.35
2022-09-16T20:01:46.037Z,4.50
2022-09-16T20:04:14.332Z,3.97
2022-09-16T20:06:41.919Z,3.65
2022-09-16T20:09:11.696Z,3.83
2022-09-16T20:11:41.318Z,3.90
2022-09-16T20:14:13.539Z,3.80
2022-09-16T20:16:41.341Z,3.17
2022-09-16T20:19:11.305Z,3.65
2022-09-16T20:21:38.814Z,3.62
2022-09-16T20:24:07.849Z,3.65
2022-09-16T20:26:35.552Z,3.25
2022-09-16T20:29:03.177Z,4.20
2022-09-16T20:31:32.631Z,3.50
2022-09-16T20:34:00.144Z,3.33
2022-09-16T20:36:30.485Z,3.90
2022-09-16T20:39:01.265Z,3.40
2022-09-16T20:41:30.638Z,3.70
2022-09-16T20:43:59.049Z,3.85
2022-09-16T20:46:28.072Z,3.72
2022-09-16T20:48:56.634Z,3.17
2022-09-16T20:51:25.796Z,3.97
2022-09-16T20:54:07.830Z,3.70
2022-09-16T20:56:42.986Z,3.28
2022-09-16T20:59:11.752Z,3.28
2022-09-16T21:01:39.743Z,3.37
2022-09-16T21:04:11.686Z,3.15
2022-09-16T21:06:39.426Z,3.92
2022-09-16T21:09:08.838Z,4.20
2022-09-16T21:11:36.211Z,3.58
2022-09-16T21:14:06.552Z,4.05
2022-09-16T21:16:36.213Z,4.07
2022-09-16T21:19:05.480Z,4.43
2022-09-16T21:21:32.840Z,3.97
2022-09-16T21:24:01.368Z,4.43
2022-09-16T21:26:32.728Z,4.93
2022-09-16T21:29:01.449Z,4.80
2022-09-16T21:31:30.272Z,4.90
2022-09-16T21:33:58.063Z,5.22
2022-09-16T21:36:26.750Z,5.72
2022-09-16T21:38:54.887Z,5.03
2022-09-16T21:41:22.473Z,5.03
2022-09-16T21:43:51.645Z,4.90
2022-09-16T21:46:20.565Z,5.55
2022-09-16T21:48:48.612Z,6.00
2022-09-16T21:51:17.765Z,5.45
2022-09-16T21:53:45.698Z,5.40
2022-09-16T21:56:14.833Z,5.87
2022-09-16T21:58:42.271Z,6.25
2022-09-16T22:01:18.879Z,6.18
2022-09-16T22:04:02.851Z,6.20
2022-09-16T22:06:30.365Z,6.25
2022-09-16T22:09:00.886Z,6.82
2022-09-16T22:11:29.864Z,6.97
2022-09-16T22:14:00.406Z,6.50
2022-09-16T22:16:29.854Z,6.15
2022-09-16T22:19:01.880Z,7.00
2022-09-16T22:21:31.276Z,6.50
2022-09-16T22:23:59.496Z,5.97
2022-09-16T22:26:27.041Z,6.05
2022-09-16T22:28:54.713Z,6.62
2022-09-16T22:31:29.859Z,6.80
2022-09-16T22:33:58.974Z,6.53
2022-09-16T22:36:30.599Z,7.07
2022-09-16T22:39:00.985Z,6.53
2022-09-16T22:41:29.029Z,7.05
2022-09-16T22:43:56.363Z,7.32
2022-09-16T22:46:28.850Z,6.47
2022-09-16T22:48:56.984Z,6.35
2022-09-16T22:51:24.725Z,6.37
2022-09-16T22:53:52.192Z,6.18
2022-09-16T22:56:21.361Z,5.62
2022-09-16T22:58:53.560Z,6.87
2022-09-16T23:01:23.549Z,6.43
2022-09-16T23:03:53.450Z,5.97
2022-09-16T23:06:20.933Z,7.10
2022-09-16T23:09:07.269Z,5.57
2022-09-16T23:11:53.302Z,6.25
2022-09-16T23:14:21.813Z,5.93
2022-09-16T23:16:49.486Z,6.40
2022-09-16T23:19:16.907Z,6.10
2022-09-16T23:21:44.422Z,6.60
2022-09-16T23:24:15.244Z,5.68
2022-09-16T23:26:42.893Z,5.78
2022-09-16T23:29:10.600Z,5.93
2022-09-16T23:31:40.435Z,5.45
2022-09-16T23:34:19.454Z,5.75
2022-09-16T23:36:47.221Z,5.95
2022-09-16T23:39:15.240Z,6.05
2022-09-16T23:41:43.330Z,6.28
2022-09-16T23:44:14.423Z,5.22
2022-09-16T23:46:41.827Z,5.68
2022-09-16T23:49:10.119Z,6.20
2022-09-16T23:51:37.987Z,5.78
2022-09-16T23:54:05.441Z,5.95
2022-09-16T23:56:32.777Z,6.20
2022-09-16T23:59:00.806Z,5.93
